Stare Strasnice, Czech Republic

1:39 AM CET on December 05, 2016 (GMT +0100)
| | Change Station

Elev -9999 ft 0.00 °N, 0.00 °E | Updated

Rain
Rain
56 °F
Feels Like 56 °F
N
4
Wind Variable Wind from NE
Gusts mph

Today
High -- | Low -- °F
--% Chance of Precip.
Yesterday
High -- | Low -- °F
Precip. -- in
Pressure 30.42 in
Visibility 0.2 miles
Clouds
Dew Point 47 °F
Humidity 70%
Rainfall --
Snow Depth Not available.
7:44 AM 4:00 PM
Waxing Crescent, 26% visible
METAR LKPR 050030Z 06005KT 020V100 0400 R24/0500N R30/0450N FZFG VV001 M04/M05 Q1030 R24/29//95 R30/35//95 NOSIG
Pressure 30.42 in
Visibility 0.2 miles
Clouds
Dew Point 47 °F
Humidity 70%
Rainfall --
Snow Depth Not available.
7:44 AM 4:00 PM
Waxing Crescent, 26% visible
METAR LKPR 050030Z 06005KT 020V100 0400 R24/0500N R30/0450N FZFG VV001 M04/M05 Q1030 R24/29//95 R30/35//95 NOSIG

10-Day Weather Forecast

×

Almanac

Astronomy

Dec. 05, 2016 Rise Set
Actual Time
Civil Twilight
Nautical Twilight
Astronomical Twilight
Moon
Length of Visible Light
Length of Day
Tomorrow will be .
, % of the Moon is Illuminated

Today's Extremes

Country Highs Country Lows

Community

WunderPhotos

Upload Photos

1,955,725 photos uploaded!

WunderBlog® & News

Nearby

Air Quality

  Air Quality AQ Index Pollutant
Not available.

Snow Depth

Station Depth Elevation

Earthquake Activity

City Distance Mag. Time & Date
Minimum magnitude displayed is 2.5.

Coastal Water Temperatures

Place Temperature

Stations

Nearby Weather Stations

Station Location Temp. Windchill Dew Point Humidity Wind Precip. Elev Updated Type